sensor_id;sensor_type;location;lat;lon;timestamp;pressure;altitude;pressure_sealevel;temperature;humidity
68508;BME280;55510;49.560;19.090;2022-11-27T12:00:10;97585.53;;;3.22;99.83
68508;BME280;55510;49.560;19.090;2022-11-27T12:06:41;97577.91;;;3.44;100.00
68508;BME280;55510;49.560;19.090;2022-11-27T12:09:56;97580.53;;;3.60;100.00
68508;BME280;55510;49.560;19.090;2022-11-27T12:20:14;97561.44;;;4.30;97.50
68508;BME280;55510;49.560;19.090;2022-11-27T12:23:35;97565.63;;;4.47;97.08
68508;BME280;55510;49.560;19.090;2022-11-27T12:27:07;97567.56;;;4.54;96.02
68508;BME280;55510;49.560;19.090;2022-11-27T12:30:16;97563.91;;;4.55;94.61
68508;BME280;55510;49.560;19.090;2022-11-27T12:33:32;97559.34;;;4.48;93.03
68508;BME280;55510;49.560;19.090;2022-11-27T12:52:33;97544.97;;;4.28;92.38
68508;BME280;55510;49.560;19.090;2022-11-27T12:55:38;97545.63;;;4.30;93.08
68508;BME280;55510;49.560;19.090;2022-11-27T12:58:46;97542.97;;;4.30;93.58
68508;BME280;55510;49.560;19.090;2022-11-27T13:11:55;97536.47;;;4.17;93.29
68508;BME280;55510;49.560;19.090;2022-11-27T13:15:04;97531.69;;;4.21;93.59
68508;BME280;55510;49.560;19.090;2022-11-27T13:18:17;97537.41;;;4.25;93.67
68508;BME280;55510;49.560;19.090;2022-11-27T13:21:26;97535.78;;;4.24;93.89
68508;BME280;55510;49.560;19.090;2022-11-27T13:24:28;97540.41;;;4.21;93.78
68508;BME280;55510;49.560;19.090;2022-11-27T13:27:32;97538.13;;;4.18;94.04
68508;BME280;55510;49.560;19.090;2022-11-27T13:30:35;97546.38;;;4.15;93.96
68508;BME280;55510;49.560;19.090;2022-11-27T13:33:42;97539.81;;;4.11;94.10
68508;BME280;55510;49.560;19.090;2022-11-27T13:36:46;97541.16;;;4.07;94.18
68508;BME280;55510;49.560;19.090;2022-11-27T13:40:15;97538.22;;;4.02;94.88
68508;BME280;55510;49.560;19.090;2022-11-27T13:46:21;97539.06;;;3.94;94.85
68508;BME280;55510;49.560;19.090;2022-11-27T13:49:27;97535.31;;;3.88;95.08
68508;BME280;55510;49.560;19.090;2022-11-27T13:52:30;97538.47;;;3.84;95.37
68508;BME280;55510;49.560;19.090;2022-11-27T13:55:36;97532.72;;;3.80;96.09
68508;BME280;55510;49.560;19.090;2022-11-27T13:58:39;97532.41;;;3.75;96.42
68508;BME280;55510;49.560;19.090;2022-11-27T14:01:58;97534.75;;;3.70;95.93
68508;BME280;55510;49.560;19.090;2022-11-27T14:04:59;97523.91;;;3.65;95.49
68508;BME280;55510;49.560;19.090;2022-11-27T14:08:02;97529.66;;;3.60;96.08
68508;BME280;55510;49.560;19.090;2022-11-27T14:11:06;97520.81;;;3.53;95.88
68508;BME280;55510;49.560;19.090;2022-11-27T14:14:27;97525.63;;;3.41;96.89
68508;BME280;55510;49.560;19.090;2022-11-27T14:17:42;97524.00;;;3.31;97.52
68508;BME280;55510;49.560;19.090;2022-11-27T14:20:49;97517.28;;;3.21;98.14
68508;BME280;55510;49.560;19.090;2022-11-27T14:23:52;97524.72;;;3.09;98.17
68508;BME280;55510;49.560;19.090;2022-11-27T14:27:32;97512.09;;;2.96;98.93
68508;BME280;55510;49.560;19.090;2022-11-27T14:30:48;97517.03;;;2.82;99.42
68508;BME280;55510;49.560;19.090;2022-11-27T14:33:49;97512.28;;;2.69;99.73
68508;BME280;55510;49.560;19.090;2022-11-27T14:36:51;97512.47;;;2.59;100.00
68508;BME280;55510;49.560;19.090;2022-11-27T14:39:52;97521.34;;;2.50;100.00
68508;BME280;55510;49.560;19.090;2022-11-27T14:47:18;97525.91;;;2.31;100.00
68508;BME280;55510;49.560;19.090;2022-11-27T14:50:20;97517.88;;;2.25;100.00
68508;BME280;55510;49.560;19.090;2022-11-27T14:53:24;97514.22;;;2.17;100.00
68508;BME280;55510;49.560;19.090;2022-11-27T15:00:50;97522.41;;;2.06;100.00
68508;BME280;55510;49.560;19.090;2022-11-27T15:04:04;97525.34;;;2.03;100.00
68508;BME280;55510;49.560;19.090;2022-11-27T15:07:20;97523.72;;;2.02;100.00
68508;BME280;55510;49.560;19.090;2022-11-27T15:10:28;97523.72;;;2.02;100.00
68508;BME280;55510;49.560;19.090;2022-11-27T15:13:32;97527.19;;;2.02;100.00
68508;BME280;55510;49.560;19.090;2022-11-27T15:16:34;97517.94;;;1.98;100.00
68508;BME280;55510;49.560;19.090;2022-11-27T15:19:36;97533.56;;;2.00;100.00
68508;BME280;55510;49.560;19.090;2022-11-27T15:22:37;97528.47;;;1.98;100.00
68508;BME280;55510;49.560;19.090;2022-11-27T15:26:24;97523.06;;;2.00;100.00
68508;BME280;55510;49.560;19.090;2022-11-27T15:29:33;97524.03;;;1.99;100.00
68508;BME280;55510;49.560;19.090;2022-11-27T15:32:44;97522.53;;;1.96;100.00
68508;BME280;55510;49.560;19.090;2022-11-27T15:35:50;97519.25;;;1.94;100.00
68508;BME280;55510;49.560;19.090;2022-11-27T15:38:51;97515.16;;;1.92;100.00
68508;BME280;55510;49.560;19.090;2022-11-27T15:42:29;97513.53;;;1.91;100.00
68508;BME280;55510;49.560;19.090;2022-11-27T15:45:30;97509.91;;;1.92;100.00
68508;BME280;55510;49.560;19.090;2022-11-27T15:48:34;97509.41;;;1.88;100.00
68508;BME280;55510;49.560;19.090;2022-11-27T15:51:35;97500.38;;;1.82;100.00
68508;BME280;55510;49.560;19.090;2022-11-27T15:54:36;97488.38;;;1.80;100.00
68508;BME280;55510;49.560;19.090;2022-11-27T15:57:36;97484.13;;;1.79;100.00
68508;BME280;55510;49.560;19.090;2022-11-27T16:00:37;97480.00;;;1.76;100.00
68508;BME280;55510;49.560;19.090;2022-11-27T16:03:38;97484.44;;;1.76;100.00
68508;BME280;55510;49.560;19.090;2022-11-27T16:06:40;97483.59;;;1.75;100.00
68508;BME280;55510;49.560;19.090;2022-11-27T16:09:40;97487.53;;;1.71;100.00
68508;BME280;55510;49.560;19.090;2022-11-27T16:12:41;97494.25;;;1.65;100.00
68508;BME280;55510;49.560;19.090;2022-11-27T16:15:42;97484.22;;;1.61;100.00
68508;BME280;55510;49.560;19.090;2022-11-27T16:18:42;97485.22;;;1.59;100.00
68508;BME280;55510;49.560;19.090;2022-11-27T16:21:43;97489.78;;;1.57;100.00
68508;BME280;55510;49.560;19.090;2022-11-27T16:24:44;97490.13;;;1.54;100.00
68508;BME280;55510;49.560;19.090;2022-11-27T16:27:44;97477.16;;;1.53;100.00
68508;BME280;55510;49.560;19.090;2022-11-27T16:30:45;97471.09;;;1.52;100.00
68508;BME280;55510;49.560;19.090;2022-11-27T16:33:46;97466.81;;;1.51;100.00
68508;BME280;55510;49.560;19.090;2022-11-27T16:36:47;97475.34;;;1.53;100.00
68508;BME280;55510;49.560;19.090;2022-11-27T16:39:48;97476.00;;;1.55;100.00
68508;BME280;55510;49.560;19.090;2022-11-27T16:42:49;97477.00;;;1.54;100.00
68508;BME280;55510;49.560;19.090;2022-11-27T16:45:50;97474.38;;;1.54;100.00
68508;BME280;55510;49.560;19.090;2022-11-27T16:48:50;97468.16;;;1.55;100.00
68508;BME280;55510;49.560;19.090;2022-11-27T16:51:51;97468.16;;;1.55;100.00
68508;BME280;55510;49.560;19.090;2022-11-27T16:54:55;97466.19;;;1.57;100.00
68508;BME280;55510;49.560;19.090;2022-11-27T16:57:56;97462.56;;;1.58;100.00
68508;BME280;55510;49.560;19.090;2022-11-27T17:00:57;97464.84;;;1.53;100.00
68508;BME280;55510;49.560;19.090;2022-11-27T17:03:57;97457.97;;;1.52;100.00
68508;BME280;55510;49.560;19.090;2022-11-27T17:07:02;97455.66;;;1.49;100.00
68508;BME280;55510;49.560;19.090;2022-11-27T17:10:02;97456.66;;;1.48;100.00
68508;BME280;55510;49.560;19.090;2022-11-27T17:13:04;97459.28;;;1.48;100.00
68508;BME280;55510;49.560;19.090;2022-11-27T17:16:05;97443.19;;;1.43;100.00
68508;BME280;55510;49.560;19.090;2022-11-27T17:19:10;97445.31;;;1.39;100.00
68508;BME280;55510;49.560;19.090;2022-11-27T17:22:11;97448.75;;;1.40;100.00
68508;BME280;55510;49.560;19.090;2022-11-27T17:25:12;97443.34;;;1.41;100.00
68508;BME280;55510;49.560;19.090;2022-11-27T17:28:12;97443.19;;;1.43;100.00
68508;BME280;55510;49.560;19.090;2022-11-27T17:31:16;97445.16;;;1.41;100.00
68508;BME280;55510;49.560;19.090;2022-11-27T17:34:17;97441.88;;;1.39;100.00
68508;BME280;55510;49.560;19.090;2022-11-27T17:37:17;97438.59;;;1.37;100.00
68508;BME280;55510;49.560;19.090;2022-11-27T17:40:22;97438.59;;;1.37;100.00
68508;BME280;55510;49.560;19.090;2022-11-27T17:43:24;97430.88;;;1.35;100.00
68508;BME280;55510;49.560;19.090;2022-11-27T17:46:27;97435.97;;;1.37;100.00
68508;BME280;55510;49.560;19.090;2022-11-27T17:49:28;97429.75;;;1.38;100.00
68508;BME280;55510;49.560;19.090;2022-11-27T17:52:29;97426.13;;;1.39;100.00
68508;BME280;55510;49.560;19.090;2022-11-27T17:55:30;97427.47;;;1.43;100.00
68508;BME280;55510;49.560;19.090;2022-11-27T17:58:30;97424.66;;;1.44;100.00
68508;BME280;55510;49.560;19.090;2022-11-27T18:01:31;97419.41;;;1.44;100.00
68508;BME280;55510;49.560;19.090;2022-11-27T18:04:33;97426.28;;;1.45;100.00
68508;BME280;55510;49.560;19.090;2022-11-27T18:07:35;97430.41;;;1.48;100.00
68508;BME280;55510;49.560;19.090;2022-11-27T18:10:36;97421.06;;;1.45;100.00
68508;BME280;55510;49.560;19.090;2022-11-27T18:13:37;97417.75;;;1.43;100.00
68508;BME280;55510;49.560;19.090;2022-11-27T18:16:37;97416.78;;;1.44;100.00
68508;BME280;55510;49.560;19.090;2022-11-27T18:19:38;97406.94;;;1.47;100.00
68508;BME280;55510;49.560;19.090;2022-11-27T18:22:39;97409.44;;;1.48;100.00
68508;BME280;55510;49.560;19.090;2022-11-27T18:25:39;97403.34;;;1.48;100.00
68508;BME280;55510;49.560;19.090;2022-11-27T18:28:41;97404.19;;;1.48;100.00
68508;BME280;55510;49.560;19.090;2022-11-27T18:31:42;97406.63;;;1.50;100.00
68508;BME280;55510;49.560;19.090;2022-11-27T18:34:43;97409.75;;;1.45;100.00
68508;BME280;55510;49.560;19.090;2022-11-27T18:37:44;97409.56;;;1.38;100.00
68508;BME280;55510;49.560;19.090;2022-11-27T18:40:45;97409.38;;;1.32;100.00
68508;BME280;55510;49.560;19.090;2022-11-27T18:43:46;97413.28;;;1.27;100.00
68508;BME280;55510;49.560;19.090;2022-11-27T18:46:46;97411.16;;;1.23;100.00
68508;BME280;55510;49.560;19.090;2022-11-27T18:49:47;97406.56;;;1.17;100.00
68508;BME280;55510;49.560;19.090;2022-11-27T18:52:48;97405.38;;;1.11;100.00
68508;BME280;55510;49.560;19.090;2022-11-27T18:55:49;97408.31;;;1.08;100.00
68508;BME280;55510;49.560;19.090;2022-11-27T18:58:50;97415.72;;;1.12;100.00
68508;BME280;55510;49.560;19.090;2022-11-27T19:01:51;97406.66;;;1.07;100.00
68508;BME280;55510;49.560;19.090;2022-11-27T19:04:52;97407.31;;;1.00;100.00
68508;BME280;55510;49.560;19.090;2022-11-27T19:07:53;97400.72;;;0.96;100.00
68508;BME280;55510;49.560;19.090;2022-11-27T19:10:54;97397.91;;;0.90;100.00
68508;BME280;55510;49.560;19.090;2022-11-27T19:13:59;97394.63;;;0.88;100.00
68508;BME280;55510;49.560;19.090;2022-11-27T19:17:00;97396.06;;;0.82;100.00
68508;BME280;55510;49.560;19.090;2022-11-27T19:20:01;97384.25;;;0.78;100.00
68508;BME280;55510;49.560;19.090;2022-11-27T19:23:03;97382.25;;;0.71;100.00
68508;BME280;55510;49.560;19.090;2022-11-27T19:26:06;97378.44;;;0.66;100.00
68508;BME280;55510;49.560;19.090;2022-11-27T19:29:13;97378.09;;;0.61;100.00
68508;BME280;55510;49.560;19.090;2022-11-27T19:32:14;97377.13;;;0.62;100.00
68508;BME280;55510;49.560;19.090;2022-11-27T19:35:15;97369.44;;;0.60;100.00
68508;BME280;55510;49.560;19.090;2022-11-27T19:38:16;97375.47;;;0.61;100.00
68508;BME280;55510;49.560;19.090;2022-11-27T19:41:17;97372.88;;;0.61;100.00
68508;BME280;55510;49.560;19.090;2022-11-27T19:44:18;97377.28;;;0.60;100.00
68508;BME280;55510;49.560;19.090;2022-11-27T19:47:18;97363.69;;;0.56;100.00
68508;BME280;55510;49.560;19.090;2022-11-27T19:50:22;97358.59;;;0.55;100.00
68508;BME280;55510;49.560;19.090;2022-11-27T19:53:23;97346.13;;;0.49;100.00
68508;BME280;55510;49.560;19.090;2022-11-27T19:56:26;97346.13;;;0.49;100.00
68508;BME280;55510;49.560;19.090;2022-11-27T19:59:28;97348.19;;;0.37;100.00
68508;BME280;55510;49.560;19.090;2022-11-27T20:02:29;97343.06;;;0.27;100.00
68508;BME280;55510;49.560;19.090;2022-11-27T20:05:30;97353.31;;;0.20;100.00
68508;BME280;55510;49.560;19.090;2022-11-27T20:08:32;97349.66;;;0.13;100.00
68508;BME280;55510;49.560;19.090;2022-11-27T20:11:33;97349.31;;;0.08;100.00
68508;BME280;55510;49.560;19.090;2022-11-27T20:14:37;97340.28;;;0.02;100.00
68508;BME280;55510;49.560;19.090;2022-11-27T20:17:37;97341.72;;;-0.04;100.00
68508;BME280;55510;49.560;19.090;2022-11-27T20:20:38;97333.63;;;-0.10;100.00
68508;BME280;55510;49.560;19.090;2022-11-27T20:23:39;97339.16;;;-0.13;100.00
68508;BME280;55510;49.560;19.090;2022-11-27T20:26:40;97341.78;;;-0.13;100.00
68508;BME280;55510;49.560;19.090;2022-11-27T20:29:41;97343.06;;;-0.18;100.00
68508;BME280;55510;49.560;19.090;2022-11-27T20:32:42;97335.00;;;-0.24;100.00
68508;BME280;55510;49.560;19.090;2022-11-27T20:35:44;97338.06;;;-0.29;100.00
68508;BME280;55510;49.560;19.090;2022-11-27T20:38:45;97344.41;;;-0.32;100.00
68508;BME280;55510;49.560;19.090;2022-11-27T20:41:47;97348.19;;;-0.34;100.00
68508;BME280;55510;49.560;19.090;2022-11-27T20:44:48;97348.84;;;-0.32;100.00
68508;BME280;55510;49.560;19.090;2022-11-27T20:47:50;97347.19;;;-0.33;100.00
68508;BME280;55510;49.560;19.090;2022-11-27T20:50:51;97349.97;;;-0.35;100.00
68508;BME280;55510;49.560;19.090;2022-11-27T20:53:52;97346.53;;;-0.35;100.00
68508;BME280;55510;49.560;19.090;2022-11-27T20:56:52;97339.13;;;-0.40;100.00
68508;BME280;55510;49.560;19.090;2022-11-27T20:59:53;97337.66;;;-0.42;100.00
68508;BME280;55510;49.560;19.090;2022-11-27T21:02:54;97335.69;;;-0.40;100.00
68508;BME280;55510;49.560;19.090;2022-11-27T21:05:55;97333.22;;;-0.42;100.00
68508;BME280;55510;49.560;19.090;2022-11-27T21:09:01;97335.03;;;-0.42;100.00
68508;BME280;55510;49.560;19.090;2022-11-27T21:12:02;97336.81;;;-0.43;100.00
68508;BME280;55510;49.560;19.090;2022-11-27T21:15:05;97331.56;;;-0.43;100.00
68508;BME280;55510;49.560;19.090;2022-11-27T21:18:05;97334.19;;;-0.43;100.00
68508;BME280;55510;49.560;19.090;2022-11-27T21:21:08;97334.13;;;-0.51;100.00
68508;BME280;55510;49.560;19.090;2022-11-27T21:24:09;97334.25;;;-0.53;100.00
68508;BME280;55510;49.560;19.090;2022-11-27T21:27:10;97326.22;;;-0.60;100.00
68508;BME280;55510;49.560;19.090;2022-11-27T21:30:11;97327.31;;;-0.62;100.00
68508;BME280;55510;49.560;19.090;2022-11-27T21:33:12;97330.91;;;-0.63;100.00
68508;BME280;55510;49.560;19.090;2022-11-27T21:36:13;97332.72;;;-0.64;100.00
68508;BME280;55510;49.560;19.090;2022-11-27T21:39:14;97328.47;;;-0.65;100.00
68508;BME280;55510;49.560;19.090;2022-11-27T21:42:20;97330.78;;;-0.62;100.00
68508;BME280;55510;49.560;19.090;2022-11-27T21:45:21;97332.41;;;-0.61;100.00
68508;BME280;55510;49.560;19.090;2022-11-27T21:48:21;97335.03;;;-0.61;100.00
68508;BME280;55510;49.560;19.090;2022-11-27T21:51:24;97330.59;;;-0.60;100.00
68508;BME280;55510;49.560;19.090;2022-11-27T21:54:26;97328.00;;;-0.60;100.00
68508;BME280;55510;49.560;19.090;2022-11-27T21:57:26;97328.66;;;-0.58;100.00
68508;BME280;55510;49.560;19.090;2022-11-27T22:00:27;97323.44;;;-0.58;100.00
68508;BME280;55510;49.560;19.090;2022-11-27T22:03:28;97317.91;;;-0.55;100.00
68508;BME280;55510;49.560;19.090;2022-11-27T22:06:33;97308.13;;;-0.53;100.00
68508;BME280;55510;49.560;19.090;2022-11-27T22:09:35;97301.25;;;-0.54;100.00
68508;BME280;55510;49.560;19.090;2022-11-27T22:12:35;97301.59;;;-0.49;100.00
68508;BME280;55510;49.560;19.090;2022-11-27T22:15:36;97293.75;;;-0.49;100.00
68508;BME280;55510;49.560;19.090;2022-11-27T22:18:37;97280.56;;;-0.47;100.00
68508;BME280;55510;49.560;19.090;2022-11-27T22:21:38;97277.78;;;-0.46;100.00
68508;BME280;55510;49.560;19.090;2022-11-27T22:24:39;97268.94;;;-0.45;100.00
